Time;durP1;ratioP1;P1;durP2;ratioP2;P2;SDS_P1;SDS_P2;PMS_P1;PMS_P2;Temp;Humidity;BMP_temperature;BMP_pressure;BME280_temperature;BME280_humidity;BME280_pressure;Samples;Min_cycle;Max_cycle;Signal;HPM_P1;HPM_P2
2023/08/27 00:01:36;;;;;;;10.00;5.18;;;;;;;;;;4947733;28;20239;-71
2023/08/27 00:04:02;;;;;;;6.68;4.25;;;;;;;;;;4948336;28;20219;-71
2023/08/27 00:06:29;;;;;;;5.18;3.97;;;;;;;;;;4948493;28;20220;-72
2023/08/27 00:08:55;;;;;;;6.72;3.95;;;;;;;;;;4948676;28;20212;-72
2023/08/27 00:11:21;;;;;;;5.43;4.00;;;;;;;;;;4948307;28;20235;-73
2023/08/27 00:13:49;;;;;;;4.43;3.83;;;;;;;;;;4948072;28;20219;-73
2023/08/27 00:16:15;;;;;;;6.90;4.00;;;;;;;;;;4948234;28;20208;-73
2023/08/27 00:18:42;;;;;;;7.03;3.65;;;;;;;;;;4948132;28;20296;-73
2023/08/27 00:21:08;;;;;;;4.20;3.58;;;;;;;;;;4952276;28;20220;-72
2023/08/27 00:23:35;;;;;;;7.80;3.70;;;;;;;;;;4952979;28;20223;-72
2023/08/27 00:26:01;;;;;;;9.50;3.92;;;;;;;;;;4953284;28;20210;-72
2023/08/27 00:28:28;;;;;;;5.45;4.05;;;;;;;;;;4953182;28;21049;-72
2023/08/27 00:31:03;;;;;;;5.95;3.92;;;;;;;;;;4952711;28;20628;-72
2023/08/27 00:33:29;;;;;;;6.35;4.18;;;;;;;;;;4953241;28;20267;-72
2023/08/27 00:35:55;;;;;;;6.80;4.05;;;;;;;;;;4952858;28;20201;-72
2023/08/27 00:38:21;;;;;;;4.65;4.10;;;;;;;;;;4953050;28;20192;-72
2023/08/27 00:40:48;;;;;;;6.57;3.97;;;;;;;;;;4952487;28;20220;-72
2023/08/27 00:43:14;;;;;;;7.95;5.00;;;;;;;;;;4952840;28;20224;-72
2023/08/27 00:45:40;;;;;;;5.32;4.65;;;;;;;;;;4952950;28;20215;-72
2023/08/27 00:48:08;;;;;;;4.88;4.50;;;;;;;;;;4952926;28;20220;-72
2023/08/27 00:50:34;;;;;;;6.47;4.93;;;;;;;;;;4952473;28;20200;-72
2023/08/27 00:53:01;;;;;;;10.88;5.18;;;;;;;;;;4952676;28;20201;-72
2023/08/27 00:55:27;;;;;;;8.75;4.45;;;;;;;;;;4952453;28;20196;-71
2023/08/27 00:57:55;;;;;;;5.18;4.68;;;;;;;;;;4952439;28;20215;-71
2023/08/27 01:00:22;;;;;;;7.15;4.20;;;;;;;;;;4952872;28;20205;-71
2023/08/27 01:02:48;;;;;;;6.20;4.45;;;;;;;;;;4953139;28;20216;-71
2023/08/27 01:05:15;;;;;;;4.53;4.18;;;;;;;;;;4953513;28;20205;-71
2023/08/27 01:07:43;;;;;;;4.72;3.85;;;;;;;;;;4953324;28;20315;-71
2023/08/27 01:10:14;;;;;;;11.43;4.47;;;;;;;;;;4953762;28;20204;-71
2023/08/27 01:12:44;;;;;;;6.43;4.15;;;;;;;;;;4957005;28;20224;-71
2023/08/27 01:15:13;;;;;;;8.10;4.20;;;;;;;;;;4957516;28;20585;-71
2023/08/27 01:17:39;;;;;;;8.57;4.50;;;;;;;;;;4957499;28;20560;-71
2023/08/27 01:20:09;;;;;;;7.82;4.82;;;;;;;;;;4957461;28;20212;-71
2023/08/27 01:22:36;;;;;;;6.80;4.78;;;;;;;;;;4956929;28;20259;-70
2023/08/27 01:25:03;;;;;;;6.25;4.80;;;;;;;;;;4957823;28;20200;-70
2023/08/27 01:27:30;;;;;;;8.43;4.93;;;;;;;;;;4958657;28;20601;-70
2023/08/27 01:30:00;;;;;;;10.10;4.78;;;;;;;;;;4957467;28;20267;-70
2023/08/27 01:32:29;;;;;;;5.13;4.15;;;;;;;;;;4957155;28;20228;-70
2023/08/27 01:34:56;;;;;;;4.95;4.20;;;;;;;;;;4957629;28;20556;-70
2023/08/27 01:37:22;;;;;;;7.43;3.90;;;;;;;;;;4957201;28;20201;-70
2023/08/27 01:39:57;;;;;;;7.43;4.00;;;;;;;;;;4957404;28;20207;-70
2023/08/27 01:42:23;;;;;;;4.97;4.50;;;;;;;;;;4956922;28;20238;-70
2023/08/27 01:44:49;;;;;;;5.47;4.30;;;;;;;;;;4957244;28;20632;-70
2023/08/27 01:47:16;;;;;;;4.38;3.95;;;;;;;;;;4957092;28;20224;-70
2023/08/27 01:49:42;;;;;;;11.10;4.40;;;;;;;;;;4956913;28;20205;-70
2023/08/27 01:52:08;;;;;;;5.25;4.50;;;;;;;;;;4956879;28;20324;-70
2023/08/27 01:54:34;;;;;;;7.13;3.85;;;;;;;;;;4957028;28;20201;-70
2023/08/27 01:57:02;;;;;;;4.88;4.15;;;;;;;;;;4956841;28;20204;-70
2023/08/27 01:59:29;;;;;;;6.28;4.53;;;;;;;;;;4956959;28;20226;-70
2023/08/27 02:01:55;;;;;;;9.13;5.00;;;;;;;;;;4956641;28;20231;-70
2023/08/27 02:04:22;;;;;;;4.70;4.35;;;;;;;;;;4956750;28;20583;-70
2023/08/27 02:06:48;;;;;;;7.60;5.50;;;;;;;;;;4956735;28;21068;-70
2023/08/27 02:09:15;;;;;;;6.40;5.60;;;;;;;;;;4956638;28;20660;-70
2023/08/27 02:11:41;;;;;;;8.00;6.28;;;;;;;;;;4956354;28;20315;-69
2023/08/27 02:14:09;;;;;;;6.38;5.63;;;;;;;;;;4956467;28;20204;-70
2023/08/27 02:16:35;;;;;;;6.03;5.43;;;;;;;;;;4956282;28;20287;-70
2023/08/27 02:19:03;;;;;;;6.13;5.22;;;;;;;;;;4956455;28;20204;-70
2023/08/27 02:21:29;;;;;;;9.45;5.28;;;;;;;;;;4956056;28;20229;-70
2023/08/27 02:23:55;;;;;;;9.45;5.65;;;;;;;;;;4956189;28;20263;-70
2023/08/27 02:26:21;;;;;;;6.90;5.38;;;;;;;;;;4956091;28;20682;-70
2023/08/27 02:28:48;;;;;;;7.43;5.57;;;;;;;;;;4955955;28;20220;-71
2023/08/27 02:31:15;;;;;;;10.93;5.90;;;;;;;;;;4955631;28;20231;-71
2023/08/27 02:33:42;;;;;;;6.70;5.13;;;;;;;;;;4955962;28;20657;-71
2023/08/27 02:36:08;;;;;;;7.75;4.72;;;;;;;;;;4955979;28;20208;-71
2023/08/27 02:38:34;;;;;;;6.10;5.53;;;;;;;;;;4955854;28;20420;-71
2023/08/27 02:41:00;;;;;;;6.13;5.47;;;;;;;;;;4955549;28;20247;-71
2023/08/27 02:43:27;;;;;;;6.22;5.63;;;;;;;;;;4955830;28;20216;-71
2023/08/27 02:45:53;;;;;;;7.05;5.50;;;;;;;;;;4955712;28;20278;-71
2023/08/27 02:48:20;;;;;;;5.55;5.13;;;;;;;;;;4955797;28;20239;-71
2023/08/27 02:50:47;;;;;;;11.43;5.53;;;;;;;;;;4955431;28;20224;-71
2023/08/27 02:53:13;;;;;;;7.60;5.63;;;;;;;;;;4955583;28;20205;-71
2023/08/27 02:55:39;;;;;;;7.15;5.78;;;;;;;;;;4955541;28;20215;-71
2023/08/27 02:58:06;;;;;;;6.88;6.28;;;;;;;;;;4955357;28;20592;-71
2023/08/27 03:00:32;;;;;;;6.10;5.32;;;;;;;;;;4954925;28;20205;-71
2023/08/27 03:02:58;;;;;;;7.28;6.20;;;;;;;;;;4955526;28;20208;-71
2023/08/27 03:05:26;;;;;;;7.28;5.85;;;;;;;;;;4955308;28;20620;-71
2023/08/27 03:07:52;;;;;;;7.18;6.35;;;;;;;;;;4955224;28;20227;-71
2023/08/27 03:10:19;;;;;;;7.28;6.20;;;;;;;;;;4955209;28;20205;-69
2023/08/27 03:12:45;;;;;;;7.45;5.78;;;;;;;;;;4954942;28;20229;-70
2023/08/27 03:15:12;;;;;;;6.00;5.60;;;;;;;;;;4955069;28;20697;-70
2023/08/27 03:17:38;;;;;;;7.63;6.57;;;;;;;;;;4958662;28;20342;-70
2023/08/27 03:20:05;;;;;;;10.25;6.30;;;;;;;;;;4956720;28;20204;-70
2023/08/27 03:22:33;;;;;;;6.68;5.95;;;;;;;;;;4955083;28;20225;-70
2023/08/27 03:25:01;;;;;;;9.18;6.20;;;;;;;;;;4955210;28;20204;-70
2023/08/27 03:27:27;;;;;;;7.20;6.50;;;;;;;;;;4954834;28;20460;-70
2023/08/27 03:29:53;;;;;;;6.35;5.85;;;;;;;;;;4954852;28;20212;-70
2023/08/27 03:32:19;;;;;;;7.18;5.80;;;;;;;;;;4954602;28;20228;-70
2023/08/27 03:34:46;;;;;;;9.25;6.05;;;;;;;;;;4954370;28;20204;-70
2023/08/27 03:37:12;;;;;;;11.40;7.20;;;;;;;;;;4954763;28;20205;-69
2023/08/27 03:39:40;;;;;;;7.72;6.93;;;;;;;;;;4954633;28;20215;-69
2023/08/27 03:42:06;;;;;;;9.43;7.88;;;;;;;;;;4954021;28;20603;-69
2023/08/27 03:44:34;;;;;;;11.82;8.50;;;;;;;;;;4954829;28;20220;-70
2023/08/27 03:47:00;;;;;;;10.20;8.80;;;;;;;;;;4954701;28;20200;-70
2023/08/27 03:49:26;;;;;;;15.82;9.70;;;;;;;;;;4954696;28;20208;-70
2023/08/27 03:51:52;;;;;;;11.25;10.15;;;;;;;;;;4954232;28;20340;-70
2023/08/27 03:54:19;;;;;;;11.20;9.63;;;;;;;;;;4954405;28;20204;-71
2023/08/27 03:56:46;;;;;;;10.57;9.70;;;;;;;;;;4954398;28;20296;-71
2023/08/27 03:59:12;;;;;;;10.38;8.90;;;;;;;;;;4954578;28;20204;-70
2023/08/27 04:01:39;;;;;;;10.13;8.98;;;;;;;;;;4954084;28;20224;-70
2023/08/27 04:04:05;;;;;;;10.30;9.20;;;;;;;;;;4954237;28;20669;-70
2023/08/27 04:06:31;;;;;;;9.63;8.73;;;;;;;;;;4954223;28;20230;-70
2023/08/27 04:08:58;;;;;;;9.30;8.40;;;;;;;;;;4954061;28;20229;-70
2023/08/27 04:11:24;;;;;;;11.30;9.00;;;;;;;;;;4953840;28;20584;-70
2023/08/27 04:13:51;;;;;;;12.85;9.25;;;;;;;;;;4954279;28;20283;-70
2023/08/27 04:16:18;;;;;;;10.75;9.10;;;;;;;;;;4954071;28;20204;-67
2023/08/27 04:18:44;;;;;;;10.77;8.68;;;;;;;;;;4953949;28;20196;-67
2023/08/27 04:21:10;;;;;;;11.55;9.05;;;;;;;;;;4953822;28;20228;-67
2023/08/27 04:23:37;;;;;;;10.23;8.82;;;;;;;;;;4953959;28;20200;-67
2023/08/27 04:26:03;;;;;;;10.85;8.35;;;;;;;;;;4953915;28;20211;-67
2023/08/27 04:28:31;;;;;;;8.90;8.20;;;;;;;;;;4954063;28;20224;-67
2023/08/27 04:30:59;;;;;;;8.88;7.95;;;;;;;;;;4953746;28;20416;-67
2023/08/27 04:33:25;;;;;;;8.43;7.63;;;;;;;;;;4953828;28;20724;-66
2023/08/27 04:35:52;;;;;;;8.98;8.15;;;;;;;;;;4953774;28;20219;-67
2023/08/27 04:38:19;;;;;;;9.20;8.10;;;;;;;;;;4953732;28;20204;-66
2023/08/27 04:40:49;;;;;;;9.90;7.72;;;;;;;;;;4953671;28;20210;-67
2023/08/27 04:43:16;;;;;;;9.07;7.65;;;;;;;;;;4953909;28;20212;-67
2023/08/27 04:45:42;;;;;;;7.28;6.65;;;;;;;;;;4953060;28;20220;-65
2023/08/27 04:48:09;;;;;;;8.05;7.22;;;;;;;;;;4953558;28;20692;-65
2023/08/27 04:50:37;;;;;;;10.32;6.93;;;;;;;;;;4953264;28;20214;-66
2023/08/27 04:53:03;;;;;;;7.50;6.80;;;;;;;;;;4953513;28;20252;-67
2023/08/27 04:55:29;;;;;;;7.75;7.05;;;;;;;;;;4953722;28;20212;-67
2023/08/27 04:57:55;;;;;;;8.07;6.75;;;;;;;;;;4953531;28;20211;-67
2023/08/27 05:00:22;;;;;;;8.05;6.75;;;;;;;;;;4953496;28;20662;-67
2023/08/27 05:02:48;;;;;;;7.63;7.00;;;;;;;;;;4953424;28;20220;-67
2023/08/27 05:05:16;;;;;;;8.13;7.28;;;;;;;;;;4953799;28;20235;-67
2023/08/27 05:07:42;;;;;;;6.85;6.35;;;;;;;;;;4955483;28;20213;-67
2023/08/27 05:10:09;;;;;;;8.05;7.43;;;;;;;;;;4960013;28;20212;-67
2023/08/27 05:12:35;;;;;;;7.47;6.78;;;;;;;;;;4953300;28;20235;-67
2023/08/27 05:15:01;;;;;;;7.72;6.57;;;;;;;;;;4953283;28;20209;-66
2023/08/27 05:17:28;;;;;;;12.15;7.25;;;;;;;;;;4953382;28;20231;-67
2023/08/27 05:19:54;;;;;;;7.35;6.63;;;;;;;;;;4953312;28;20208;-67
2023/08/27 05:22:21;;;;;;;7.05;6.45;;;;;;;;;;4952967;28;20220;-67
2023/08/27 05:24:48;;;;;;;10.63;7.13;;;;;;;;;;4953506;28;20212;-67
2023/08/27 05:27:14;;;;;;;7.65;7.05;;;;;;;;;;4953355;28;20205;-67
2023/08/27 05:29:40;;;;;;;7.88;7.13;;;;;;;;;;4953217;28;20235;-67
2023/08/27 05:32:06;;;;;;;6.60;6.03;;;;;;;;;;4953043;28;20228;-67
2023/08/27 05:34:33;;;;;;;6.30;5.70;;;;;;;;;;4953464;28;20205;-67
2023/08/27 05:36:59;;;;;;;6.18;5.68;;;;;;;;;;4953476;28;20205;-67
2023/08/27 05:39:27;;;;;;;5.57;5.10;;;;;;;;;;4953472;28;20291;-67
2023/08/27 05:41:54;;;;;;;6.05;5.57;;;;;;;;;;4952954;28;20224;-65
2023/08/27 05:44:20;;;;;;;5.47;5.07;;;;;;;;;;4952999;28;20220;-66
2023/08/27 05:46:46;;;;;;;7.82;5.97;;;;;;;;;;4953187;28;20207;-67
2023/08/27 05:49:12;;;;;;;5.97;5.40;;;;;;;;;;4952989;28;20228;-67
2023/08/27 05:51:39;;;;;;;6.80;6.20;;;;;;;;;;4952899;28;20228;-67
2023/08/27 05:54:05;;;;;;;5.40;4.88;;;;;;;;;;4953264;28;20207;-66
2023/08/27 05:56:33;;;;;;;4.90;4.60;;;;;;;;;;4953288;28;20205;-66
2023/08/27 05:58:59;;;;;;;6.18;5.60;;;;;;;;;;4956647;28;20204;-67
2023/08/27 06:01:25;;;;;;;5.38;5.03;;;;;;;;;;4956504;28;20232;-67
2023/08/27 06:03:52;;;;;;;5.35;5.05;;;;;;;;;;4956469;28;20350;-67
2023/08/27 06:06:18;;;;;;;6.60;5.47;;;;;;;;;;4956395;28;20761;-67
2023/08/27 06:08:44;;;;;;;5.22;4.93;;;;;;;;;;4956436;28;20251;-65
2023/08/27 06:11:11;;;;;;;5.13;4.82;;;;;;;;;;4956219;28;20221;-66
2023/08/27 06:13:38;;;;;;;5.32;4.97;;;;;;;;;;4956436;28;20239;-67
2023/08/27 06:16:05;;;;;;;5.78;5.20;;;;;;;;;;4956280;28;20204;-67
2023/08/27 06:18:31;;;;;;;5.47;5.07;;;;;;;;;;4956217;28;20204;-67
2023/08/27 06:20:57;;;;;;;5.22;4.78;;;;;;;;;;4956017;28;20228;-67
2023/08/27 06:23:24;;;;;;;5.45;4.93;;;;;;;;;;4956277;28;20211;-67
2023/08/27 06:25:50;;;;;;;4.63;4.32;;;;;;;;;;4956138;28;20208;-67
2023/08/27 06:28:17;;;;;;;6.18;4.72;;;;;;;;;;4955919;28;20227;-67
2023/08/27 06:30:44;;;;;;;4.97;4.65;;;;;;;;;;4955597;28;20208;-67
2023/08/27 06:33:11;;;;;;;4.60;4.32;;;;;;;;;;4955917;28;20208;-67
2023/08/27 06:35:37;;;;;;;4.50;4.20;;;;;;;;;;4955739;28;20737;-67
2023/08/27 06:38:04;;;;;;;4.22;3.83;;;;;;;;;;4956285;28;20208;-67
2023/08/27 06:40:31;;;;;;;4.13;3.88;;;;;;;;;;4955837;28;20260;-67
2023/08/27 06:42:57;;;;;;;3.65;3.40;;;;;;;;;;4955776;28;20223;-67
2023/08/27 06:45:23;;;;;;;3.35;2.72;;;;;;;;;;4956048;28;20207;-67
2023/08/27 06:47:51;;;;;;;5.35;2.70;;;;;;;;;;4956191;28;20216;-67
2023/08/27 06:50:17;;;;;;;4.75;3.00;;;;;;;;;;4955935;28;20224;-67
2023/08/27 06:52:44;;;;;;;5.43;3.10;;;;;;;;;;4955667;28;20229;-67
2023/08/27 06:55:11;;;;;;;3.50;2.40;;;;;;;;;;4955817;28;20204;-67
2023/08/27 06:57:37;;;;;;;3.63;2.13;;;;;;;;;;4957122;28;20209;-67
2023/08/27 07:00:06;;;;;;;2.78;2.58;;;;;;;;;;4958465;29;20201;-67
2023/08/27 07:02:32;;;;;;;1.98;1.80;;;;;;;;;;4957205;28;20224;-67
2023/08/27 07:04:59;;;;;;;3.30;1.70;;;;;;;;;;4955807;28;20213;-67
2023/08/27 07:07:26;;;;;;;1.77;1.60;;;;;;;;;;4955650;28;20227;-67
2023/08/27 07:09:52;;;;;;;2.28;1.77;;;;;;;;;;4954537;28;20767;-67
2023/08/27 07:12:19;;;;;;;3.85;1.52;;;;;;;;;;4955066;28;20225;-67
2023/08/27 07:14:45;;;;;;;1.73;1.60;;;;;;;;;;4955338;28;20232;-67
2023/08/27 07:17:14;;;;;;;1.92;1.67;;;;;;;;;;4955909;28;20240;-67
2023/08/27 07:19:40;;;;;;;1.45;1.45;;;;;;;;;;4955462;28;20196;-67
2023/08/27 07:22:08;;;;;;;1.23;1.20;;;;;;;;;;4954955;28;20240;-67
2023/08/27 07:24:34;;;;;;;1.98;1.48;;;;;;;;;;4955146;28;20255;-66
2023/08/27 07:27:01;;;;;;;2.33;1.33;;;;;;;;;;4955007;28;20205;-66
2023/08/27 07:29:27;;;;;;;2.05;1.90;;;;;;;;;;4955329;28;20217;-66
2023/08/27 07:31:53;;;;;;;5.40;1.52;;;;;;;;;;4954823;28;20262;-66
2023/08/27 07:34:19;;;;;;;1.42;1.40;;;;;;;;;;4955163;28;20584;-67
2023/08/27 07:36:46;;;;;;;2.80;1.55;;;;;;;;;;4955011;28;20204;-67
2023/08/27 07:39:14;;;;;;;4.68;1.60;;;;;;;;;;4955095;28;20683;-66
2023/08/27 07:41:40;;;;;;;1.73;1.63;;;;;;;;;;4954516;28;20251;-66
2023/08/27 07:44:07;;;;;;;2.67;1.90;;;;;;;;;;4954689;28;20681;-66
2023/08/27 07:46:33;;;;;;;1.67;1.58;;;;;;;;;;4954940;28;20303;-66
2023/08/27 07:48:59;;;;;;;1.98;1.50;;;;;;;;;;4954810;28;20216;-66
2023/08/27 07:51:25;;;;;;;1.73;1.60;;;;;;;;;;4954422;28;20224;-66
2023/08/27 07:53:52;;;;;;;2.60;1.63;;;;;;;;;;4954755;28;20738;-66
2023/08/27 07:56:19;;;;;;;1.55;1.55;;;;;;;;;;4950074;28;20201;-66
2023/08/27 07:58:46;;;;;;;3.72;1.60;;;;;;;;;;4948536;28;20628;-66
2023/08/27 08:01:12;;;;;;;1.80;1.70;;;;;;;;;;4948478;28;20224;-67
2023/08/27 08:03:38;;;;;;;1.25;1.25;;;;;;;;;;4948927;28;20216;-67
2023/08/27 08:06:04;;;;;;;3.05;1.65;;;;;;;;;;4948989;28;20689;-67
2023/08/27 08:08:31;;;;;;;1.85;1.52;;;;;;;;;;4948906;28;20216;-67
2023/08/27 08:10:57;;;;;;;1.95;1.80;;;;;;;;;;4948155;28;20232;-68
2023/08/27 08:13:25;;;;;;;1.90;1.50;;;;;;;;;;4939923;28;20240;-67
2023/08/27 08:15:51;;;;;;;4.65;1.48;;;;;;;;;;4943376;29;20208;-67
2023/08/27 08:18:18;;;;;;;1.50;1.42;;;;;;;;;;4948628;28;20216;-67
2023/08/27 08:20:44;;;;;;;1.65;1.50;;;;;;;;;;4948406;28;20209;-66
2023/08/27 08:23:11;;;;;;;1.67;1.60;;;;;;;;;;4948798;28;20216;-67
2023/08/27 08:25:37;;;;;;;1.60;1.25;;;;;;;;;;4948645;28;20466;-66
2023/08/27 08:28:04;;;;;;;1.65;1.55;;;;;;;;;;4948739;28;20303;-66
2023/08/27 08:30:31;;;;;;;1.50;1.50;;;;;;;;;;4948423;28;20225;-66
2023/08/27 08:32:57;;;;;;;3.85;1.70;;;;;;;;;;4948390;28;20215;-66
2023/08/27 08:35:24;;;;;;;1.58;1.48;;;;;;;;;;4948340;28;20223;-66
2023/08/27 08:37:51;;;;;;;3.00;1.30;;;;;;;;;;4948498;28;20216;-66
2023/08/27 08:40:18;;;;;;;1.40;1.30;;;;;;;;;;4948474;28;20220;-66
2023/08/27 08:42:47;;;;;;;1.45;1.40;;;;;;;;;;4947643;28;20326;-66
2023/08/27 08:45:16;;;;;;;1.45;1.30;;;;;;;;;;4948457;28;20252;-65
2023/08/27 08:47:44;;;;;;;1.50;1.45;;;;;;;;;;4948175;28;20222;-66
2023/08/27 08:50:13;;;;;;;1.55;1.45;;;;;;;;;;4949950;28;20239;-66
2023/08/27 08:52:40;;;;;;;2.20;1.75;;;;;;;;;;4953059;28;20224;-66
2023/08/27 08:55:07;;;;;;;1.35;1.35;;;;;;;;;;4948372;28;20656;-67
2023/08/27 08:57:37;;;;;;;2.45;1.48;;;;;;;;;;4948602;28;20212;-67
2023/08/27 09:00:03;;;;;;;2.38;1.70;;;;;;;;;;4947972;28;20681;-67
2023/08/27 09:02:32;;;;;;;5.72;2.05;;;;;;;;;;4947930;28;20228;-67
2023/08/27 09:05:00;;;;;;;1.60;1.60;;;;;;;;;;4948192;28;20216;-67
2023/08/27 09:07:27;;;;;;;1.95;1.38;;;;;;;;;;4947998;28;20319;-67
2023/08/27 09:09:54;;;;;;;1.52;1.52;;;;;;;;;;4948144;28;20236;-67
2023/08/27 09:12:20;;;;;;;3.17;1.50;;;;;;;;;;4947969;28;20239;-68
2023/08/27 09:14:47;;;;;;;1.17;1.17;;;;;;;;;;4948077;28;20219;-67
2023/08/27 09:17:16;;;;;;;1.33;1.23;;;;;;;;;;4948408;28;20219;-67
2023/08/27 09:19:43;;;;;;;1.40;1.40;;;;;;;;;;4948642;28;20303;-66
2023/08/27 09:22:11;;;;;;;1.95;1.10;;;;;;;;;;4948078;28;20236;-67
2023/08/27 09:24:37;;;;;;;1.88;1.40;;;;;;;;;;4948852;28;20355;-67
2023/08/27 09:27:03;;;;;;;1.50;1.38;;;;;;;;;;4935249;28;20216;-66
2023/08/27 09:29:31;;;;;;;1.50;1.40;;;;;;;;;;4938540;29;20917;-68
2023/08/27 09:31:57;;;;;;;2.25;1.20;;;;;;;;;;4948766;28;20239;-67
2023/08/27 09:34:24;;;;;;;1.92;1.52;;;;;;;;;;4952133;28;20216;-67
2023/08/27 09:36:51;;;;;;;1.35;1.25;;;;;;;;;;4954531;28;20216;-65
2023/08/27 09:39:19;;;;;;;2.58;1.40;;;;;;;;;;4957023;28;20200;-66
2023/08/27 09:41:46;;;;;;;1.35;1.20;;;;;;;;;;4956693;28;20224;-65
2023/08/27 09:44:13;;;;;;;2.90;1.52;;;;;;;;;;4955682;28;20212;-66
2023/08/27 09:46:40;;;;;;;1.13;1.13;;;;;;;;;;4955236;28;20210;-67
2023/08/27 09:49:07;;;;;;;1.88;1.60;;;;;;;;;;4955602;28;20211;-67
2023/08/27 09:51:35;;;;;;;3.47;1.33;;;;;;;;;;4954776;28;20232;-67
2023/08/27 09:54:01;;;;;;;1.33;1.25;;;;;;;;;;4955149;28;20263;-65
2023/08/27 09:56:29;;;;;;;2.65;1.60;;;;;;;;;;4955144;28;20220;-65
2023/08/27 09:58:56;;;;;;;3.55;1.33;;;;;;;;;;4956633;28;20215;-66
2023/08/27 10:01:23;;;;;;;1.70;1.63;;;;;;;;;;4956257;28;20704;-66
2023/08/27 10:03:49;;;;;;;2.67;1.40;;;;;;;;;;4956601;28;20207;-67
2023/08/27 10:06:15;;;;;;;1.33;1.15;;;;;;;;;;4956551;28;20683;-65
2023/08/27 10:08:49;;;;;;;1.50;1.33;;;;;;;;;;4956896;28;20208;-65
2023/08/27 10:11:16;;;;;;;1.40;1.40;;;;;;;;;;4956323;28;20232;-67
2023/08/27 10:13:44;;;;;;;2.00;1.27;;;;;;;;;;4956575;28;20208;-67
2023/08/27 10:16:11;;;;;;;2.95;1.38;;;;;;;;;;4956720;28;20211;-67
2023/08/27 10:18:37;;;;;;;1.38;1.38;;;;;;;;;;4956567;28;20215;-67
2023/08/27 10:21:04;;;;;;;1.35;1.20;;;;;;;;;;4956124;28;20251;-67
2023/08/27 10:23:31;;;;;;;2.30;1.33;;;;;;;;;;4956671;28;20204;-67
2023/08/27 10:25:58;;;;;;;1.20;1.20;;;;;;;;;;4956544;28;20208;-66
2023/08/27 10:28:25;;;;;;;1.90;1.50;;;;;;;;;;4956204;28;20204;-66
2023/08/27 10:30:55;;;;;;;1.35;1.10;;;;;;;;;;4956003;28;20480;-67
2023/08/27 10:33:21;;;;;;;1.58;1.35;;;;;;;;;;4956453;28;20210;-66
2023/08/27 10:35:48;;;;;;;2.25;1.45;;;;;;;;;;4956309;28;20212;-66
2023/08/27 10:38:15;;;;;;;1.30;1.30;;;;;;;;;;4956148;28;20215;-66
2023/08/27 10:40:44;;;;;;;2.95;1.27;;;;;;;;;;4955786;28;20204;-66
2023/08/27 10:43:16;;;;;;;1.45;1.35;;;;;;;;;;4960263;28;20240;-66
2023/08/27 10:45:43;;;;;;;3.78;1.63;;;;;;;;;;4956390;28;20200;-66
2023/08/27 10:48:23;;;;;;;3.03;1.85;;;;;;;;;;4956050;28;20205;-66
2023/08/27 10:50:51;;;;;;;2.20;1.60;;;;;;;;;;4955544;28;20592;-66
2023/08/27 10:53:19;;;;;;;3.90;1.58;;;;;;;;;;4955850;28;20204;-66
2023/08/27 10:55:50;;;;;;;3.20;2.90;;;;;;;;;;4956233;28;20216;-66
2023/08/27 10:58:17;;;;;;;2.13;2.00;;;;;;;;;;4956124;28;20759;-65
2023/08/27 11:01:01;;;;;;;1.77;1.60;;;;;;;;;;4955565;28;20227;-65
2023/08/27 11:03:28;;;;;;;1.92;1.42;;;;;;;;;;4955664;28;20242;-65
2023/08/27 11:06:10;;;;;;;2.53;2.33;;;;;;;;;;4955564;28;20691;-65
2023/08/27 11:08:36;;;;;;;1.67;1.60;;;;;;;;;;4956010;28;20207;-64
2023/08/27 11:11:10;;;;;;;2.38;1.45;;;;;;;;;;4955058;28;20723;-64
2023/08/27 11:13:37;;;;;;;1.73;1.60;;;;;;;;;;4955487;28;20209;-64
2023/08/27 11:16:08;;;;;;;1.23;1.23;;;;;;;;;;4955419;28;20205;-64
2023/08/27 11:18:45;;;;;;;1.85;1.42;;;;;;;;;;4955534;28;20212;-64
2023/08/27 11:21:21;;;;;;;3.13;1.15;;;;;;;;;;4955207;28;20220;-64
2023/08/27 11:24:02;;;;;;;1.42;1.33;;;;;;;;;;4955408;28;20204;-64
2023/08/27 11:26:29;;;;;;;2.20;1.20;;;;;;;;;;4955215;28;20735;-66
2023/08/27 11:28:56;;;;;;;0.93;0.90;;;;;;;;;;4955208;28;20201;-66
2023/08/27 11:31:23;;;;;;;1.20;1.15;;;;;;;;;;4955326;28;20235;-66
2023/08/27 11:33:50;;;;;;;1.40;1.30;;;;;;;;;;4955532;28;20215;-66
2023/08/27 11:36:18;;;;;;;1.27;1.17;;;;;;;;;;4955192;28;20200;-66
2023/08/27 11:38:44;;;;;;;1.33;1.27;;;;;;;;;;4955026;28;20235;-67
2023/08/27 11:41:11;;;;;;;1.77;1.10;;;;;;;;;;4954608;28;20696;-66
2023/08/27 11:43:37;;;;;;;1.73;1.40;;;;;;;;;;4954703;28;20212;-66
2023/08/27 11:46:03;;;;;;;1.88;1.33;;;;;;;;;;4954947;28;20567;-66
2023/08/27 11:48:30;;;;;;;1.50;1.40;;;;;;;;;;4954981;28;20211;-65
2023/08/27 11:50:57;;;;;;;1.60;1.50;;;;;;;;;;4954339;28;20824;-64
2023/08/27 11:53:24;;;;;;;1.95;1.30;;;;;;;;;;4954978;28;20691;-64
2023/08/27 11:55:51;;;;;;;1.52;1.30;;;;;;;;;;4954249;28;20227;-64
2023/08/27 11:58:18;;;;;;;1.15;1.15;;;;;;;;;;4954693;28;20684;-66
2023/08/27 12:00:44;;;;;;;1.33;1.33;;;;;;;;;;4954242;28;20558;-67
2023/08/27 12:03:11;;;;;;;1.58;1.25;;;;;;;;;;4954967;28;20295;-67
2023/08/27 12:05:37;;;;;;;1.88;1.73;;;;;;;;;;4954621;28;20204;-67
2023/08/27 12:08:07;;;;;;;1.52;1.42;;;;;;;;;;4954581;28;20577;-67
2023/08/27 12:10:33;;;;;;;1.25;1.25;;;;;;;;;;4954060;28;20219;-67
2023/08/27 12:13:00;;;;;;;3.13;1.50;;;;;;;;;;4954511;28;20211;-67
2023/08/27 12:15:29;;;;;;;2.90;1.13;;;;;;;;;;4954589;28;20211;-67
2023/08/27 12:17:55;;;;;;;1.15;1.15;;;;;;;;;;4954448;28;20239;-67
2023/08/27 12:20:30;;;;;;;1.27;1.20;;;;;;;;;;4954336;28;20622;-67
2023/08/27 12:22:58;;;;;;;1.77;1.67;;;;;;;;;;4954155;28;20604;-67
2023/08/27 12:25:25;;;;;;;2.47;1.60;;;;;;;;;;4954462;28;20291;-66
2023/08/27 12:27:52;;;;;;;1.38;1.30;;;;;;;;;;4954370;28;20210;-66
2023/08/27 12:30:18;;;;;;;2.50;1.50;;;;;;;;;;4954467;28;20224;-65
2023/08/27 12:32:54;;;;;;;1.95;1.67;;;;;;;;;;4959733;28;20228;-66
2023/08/27 12:35:20;;;;;;;1.25;1.20;;;;;;;;;;4964653;28;20207;-65
2023/08/27 12:37:48;;;;;;;1.77;1.58;;;;;;;;;;4959530;28;20215;-65
2023/08/27 12:40:14;;;;;;;1.83;1.70;;;;;;;;;;4954480;28;20200;-65
2023/08/27 12:42:42;;;;;;;1.17;1.08;;;;;;;;;;4953938;28;20236;-64
2023/08/27 12:45:08;;;;;;;1.27;1.27;;;;;;;;;;4954020;28;20627;-66
2023/08/27 12:47:35;;;;;;;1.40;1.30;;;;;;;;;;4954063;28;20255;-66
2023/08/27 12:50:01;;;;;;;1.63;1.35;;;;;;;;;;4953856;28;20212;-66
2023/08/27 12:52:28;;;;;;;2.67;1.35;;;;;;;;;;4958655;28;20230;-66
2023/08/27 12:54:54;;;;;;;1.52;1.20;;;;;;;;;;4967714;28;20216;-66
2023/08/27 12:57:20;;;;;;;2.92;1.33;;;;;;;;;;4957187;28;20255;-66
2023/08/27 12:59:48;;;;;;;3.90;1.38;;;;;;;;;;4954296;28;20229;-66
2023/08/27 13:02:15;;;;;;;3.45;1.38;;;;;;;;;;4954034;28;20228;-64
2023/08/27 13:04:41;;;;;;;1.33;1.23;;;;;;;;;;4954253;28;20680;-64
2023/08/27 13:07:07;;;;;;;2.08;1.30;;;;;;;;;;4955174;28;20204;-64
2023/08/27 13:09:34;;;;;;;2.05;1.40;;;;;;;;;;4958384;28;20206;-64
2023/08/27 13:12:00;;;;;;;1.40;1.40;;;;;;;;;;4959078;28;20227;-64
2023/08/27 13:14:26;;;;;;;1.30;1.20;;;;;;;;;;4959048;28;20214;-64
2023/08/27 13:16:54;;;;;;;1.42;1.38;;;;;;;;;;4958742;28;20203;-64
2023/08/27 13:19:20;;;;;;;1.30;1.20;;;;;;;;;;4958447;28;20211;-64
2023/08/27 13:21:47;;;;;;;1.17;1.10;;;;;;;;;;4958408;28;20227;-64
2023/08/27 13:24:13;;;;;;;1.38;1.27;;;;;;;;;;4958488;28;20680;-64
2023/08/27 13:26:39;;;;;;;1.23;1.23;;;;;;;;;;4958465;28;20200;-64
2023/08/27 13:29:05;;;;;;;3.50;1.30;;;;;;;;;;4958706;28;20211;-64
2023/08/27 13:31:32;;;;;;;1.02;1.02;;;;;;;;;;4957510;28;20227;-64
2023/08/27 13:34:00;;;;;;;1.23;1.23;;;;;;;;;;4957399;28;20676;-66
2023/08/27 13:36:26;;;;;;;5.72;1.70;;;;;;;;;;4957909;28;20670;-66
2023/08/27 13:38:53;;;;;;;1.52;1.20;;;;;;;;;;4958067;28;20210;-66
2023/08/27 13:41:19;;;;;;;2.45;1.20;;;;;;;;;;4957200;28;20736;-64
2023/08/27 13:43:45;;;;;;;2.42;1.48;;;;;;;;;;4957763;28;20212;-66
2023/08/27 13:46:12;;;;;;;1.40;1.40;;;;;;;;;;4958018;28;20212;-66
2023/08/27 13:48:38;;;;;;;1.33;1.30;;;;;;;;;;4957481;28;20204;-66
2023/08/27 13:51:06;;;;;;;1.67;1.42;;;;;;;;;;4957265;28;20704;-66
2023/08/27 13:53:32;;;;;;;1.63;1.60;;;;;;;;;;4957763;28;20204;-66
2023/08/27 13:55:58;;;;;;;1.77;1.45;;;;;;;;;;4957659;28;20669;-64
2023/08/27 13:58:25;;;;;;;1.45;1.20;;;;;;;;;;4957472;28;20209;-64
2023/08/27 14:00:51;;;;;;;1.10;1.00;;;;;;;;;;4956871;28;20254;-66
2023/08/27 14:03:18;;;;;;;2.95;1.70;;;;;;;;;;4957686;28;20235;-66
2023/08/27 14:05:44;;;;;;;1.58;1.48;;;;;;;;;;4957612;28;20203;-66
2023/08/27 14:08:11;;;;;;;1.80;1.73;;;;;;;;;;4957373;28;20212;-66
2023/08/27 14:10:38;;;;;;;1.52;1.30;;;;;;;;;;4956876;28;20204;-66
2023/08/27 14:13:04;;;;;;;3.55;1.25;;;;;;;;;;4957101;28;20283;-66
2023/08/27 14:15:31;;;;;;;1.98;1.20;;;;;;;;;;4957467;28;20211;-65
2023/08/27 14:17:57;;;;;;;1.20;1.20;;;;;;;;;;4956638;28;20208;-66
2023/08/27 14:20:24;;;;;;;1.10;1.10;;;;;;;;;;4956991;28;20204;-67
2023/08/27 14:22:50;;;;;;;1.17;1.10;;;;;;;;;;4956771;28;20315;-67
2023/08/27 14:25:18;;;;;;;1.17;1.17;;;;;;;;;;4956855;28;20204;-66
2023/08/27 14:27:44;;;;;;;2.30;1.35;;;;;;;;;;4956446;28;20207;-66
2023/08/27 14:30:11;;;;;;;1.38;1.27;;;;;;;;;;4956940;28;20219;-67
2023/08/27 14:32:37;;;;;;;2.85;1.30;;;;;;;;;;4957075;28;20232;-66
2023/08/27 14:35:03;;;;;;;1.58;1.17;;;;;;;;;;4957829;28;20208;-64
2023/08/27 14:37:30;;;;;;;2.55;1.40;;;;;;;;;;4956681;28;20212;-64
2023/08/27 14:39:56;;;;;;;1.20;1.20;;;;;;;;;;4956927;28;20207;-65
2023/08/27 14:42:23;;;;;;;1.08;1.08;;;;;;;;;;4949479;28;20243;-65